sensor_id;sensor_type;location;lat;lon;timestamp;temperature;humidity
82001;SHT30;71522;50.870;3.524;2023-12-04T00:01:54;2.78;72.51
82001;SHT30;71522;50.870;3.524;2023-12-04T00:04:20;2.77;73.13
82001;SHT30;71522;50.870;3.524;2023-12-04T00:06:45;2.79;73.50
82001;SHT30;71522;50.870;3.524;2023-12-04T00:09:12;2.84;73.63
82001;SHT30;71522;50.870;3.524;2023-12-04T00:11:41;2.81;73.60
82001;SHT30;71522;50.870;3.524;2023-12-04T00:14:07;2.79;73.18
82001;SHT30;71522;50.870;3.524;2023-12-04T00:16:34;2.77;73.12
82001;SHT30;71522;50.870;3.524;2023-12-04T00:19:01;2.81;73.26
82001;SHT30;71522;50.870;3.524;2023-12-04T00:21:26;2.82;73.13
82001;SHT30;71522;50.870;3.524;2023-12-04T00:23:52;2.75;73.96
82001;SHT30;71522;50.870;3.524;2023-12-04T00:26:18;2.75;73.95
82001;SHT30;71522;50.870;3.524;2023-12-04T00:28:43;2.74;73.71
82001;SHT30;71522;50.870;3.524;2023-12-04T00:31:09;2.72;73.69
82001;SHT30;71522;50.870;3.524;2023-12-04T00:33:36;2.75;72.87
82001;SHT30;71522;50.870;3.524;2023-12-04T00:36:04;2.81;73.25
82001;SHT30;71522;50.870;3.524;2023-12-04T00:38:31;2.79;72.94
82001;SHT30;71522;50.870;3.524;2023-12-04T00:40:59;2.82;73.01
82001;SHT30;71522;50.870;3.524;2023-12-04T00:43:26;2.89;73.12
82001;SHT30;71522;50.870;3.524;2023-12-04T00:45:51;2.85;72.78
82001;SHT30;71522;50.870;3.524;2023-12-04T00:48:17;2.88;72.54
82001;SHT30;71522;50.870;3.524;2023-12-04T00:50:43;2.87;72.91
82001;SHT30;71522;50.870;3.524;2023-12-04T00:53:08;2.91;72.34
82001;SHT30;71522;50.870;3.524;2023-12-04T00:55:34;2.98;71.89
82001;SHT30;71522;50.870;3.524;2023-12-04T00:57:59;3.02;71.58
82001;SHT30;71522;50.870;3.524;2023-12-04T01:00:25;3.02;71.92
82001;SHT30;71522;50.870;3.524;2023-12-04T01:02:51;3.03;72.28
82001;SHT30;71522;50.870;3.524;2023-12-04T01:05:18;3.03;72.36
82001;SHT30;71522;50.870;3.524;2023-12-04T01:07:44;3.06;71.61
82001;SHT30;71522;50.870;3.524;2023-12-04T01:10:09;3.10;71.96
82001;SHT30;71522;50.870;3.524;2023-12-04T01:12:35;3.12;71.33
82001;SHT30;71522;50.870;3.524;2023-12-04T01:15:02;3.18;71.14
82001;SHT30;71522;50.870;3.524;2023-12-04T01:17:28;3.16;71.53
82001;SHT30;71522;50.870;3.524;2023-12-04T01:19:54;3.19;71.23
82001;SHT30;71522;50.870;3.524;2023-12-04T01:22:19;3.18;71.74
82001;SHT30;71522;50.870;3.524;2023-12-04T01:24:45;3.23;71.19
82001;SHT30;71522;50.870;3.524;2023-12-04T01:27:11;3.23;71.35
82001;SHT30;71522;50.870;3.524;2023-12-04T01:29:37;3.22;71.52
82001;SHT30;71522;50.870;3.524;2023-12-04T01:32:02;3.19;71.25
82001;SHT30;71522;50.870;3.524;2023-12-04T01:34:28;3.22;71.63
82001;SHT30;71522;50.870;3.524;2023-12-04T01:36:54;3.18;71.49
82001;SHT30;71522;50.870;3.524;2023-12-04T01:39:19;3.18;71.30
82001;SHT30;71522;50.870;3.524;2023-12-04T01:41:45;3.22;71.05
82001;SHT30;71522;50.870;3.524;2023-12-04T01:44:11;3.16;71.22
82001;SHT30;71522;50.870;3.524;2023-12-04T01:46:37;3.20;71.46
82001;SHT30;71522;50.870;3.524;2023-12-04T01:49:03;3.15;71.35
82001;SHT30;71522;50.870;3.524;2023-12-04T01:51:29;3.16;71.19
82001;SHT30;71522;50.870;3.524;2023-12-04T01:53:59;3.12;71.89
82001;SHT30;71522;50.870;3.524;2023-12-04T01:56:25;3.13;71.09
82001;SHT30;71522;50.870;3.524;2023-12-04T01:58:50;3.15;71.40
82001;SHT30;71522;50.870;3.524;2023-12-04T02:01:18;3.10;71.39
82001;SHT30;71522;50.870;3.524;2023-12-04T02:03:45;3.13;71.48
82001;SHT30;71522;50.870;3.524;2023-12-04T02:06:12;3.13;71.19
82001;SHT30;71522;50.870;3.524;2023-12-04T02:08:40;3.16;71.56
82001;SHT30;71522;50.870;3.524;2023-12-04T02:11:06;3.20;71.38
82001;SHT30;71522;50.870;3.524;2023-12-04T02:13:32;3.22;70.43
82001;SHT30;71522;50.870;3.524;2023-12-04T02:16:03;3.22;71.55
82001;SHT30;71522;50.870;3.524;2023-12-04T02:18:34;3.20;71.44
82001;SHT30;71522;50.870;3.524;2023-12-04T02:21:01;3.19;71.55
82001;SHT30;71522;50.870;3.524;2023-12-04T02:23:27;3.23;71.24
82001;SHT30;71522;50.870;3.524;2023-12-04T02:26:13;3.24;71.37
82001;SHT30;71522;50.870;3.524;2023-12-04T02:28:48;3.26;70.49
82001;SHT30;71522;50.870;3.524;2023-12-04T02:31:18;3.29;70.41
82001;SHT30;71522;50.870;3.524;2023-12-04T02:33:47;3.26;70.84
82001;SHT30;71522;50.870;3.524;2023-12-04T02:36:16;3.30;70.25
82001;SHT30;71522;50.870;3.524;2023-12-04T02:38:42;3.30;70.36
82001;SHT30;71522;50.870;3.524;2023-12-04T02:41:08;3.30;70.53
82001;SHT30;71522;50.870;3.524;2023-12-04T02:43:34;3.34;70.02
82001;SHT30;71522;50.870;3.524;2023-12-04T02:46:00;3.37;69.31
82001;SHT30;71522;50.870;3.524;2023-12-04T02:48:25;3.33;70.26
82001;SHT30;71522;50.870;3.524;2023-12-04T02:50:51;3.27;70.12
82001;SHT30;71522;50.870;3.524;2023-12-04T02:53:17;3.26;70.28
82001;SHT30;71522;50.870;3.524;2023-12-04T02:55:43;3.33;69.88
82001;SHT30;71522;50.870;3.524;2023-12-04T02:58:08;3.31;69.34
82001;SHT30;71522;50.870;3.524;2023-12-04T03:00:34;3.34;70.00
82001;SHT30;71522;50.870;3.524;2023-12-04T03:03:00;3.40;69.04
82001;SHT30;71522;50.870;3.524;2023-12-04T03:05:26;3.43;69.75
82001;SHT30;71522;50.870;3.524;2023-12-04T03:07:51;3.43;69.42
82001;SHT30;71522;50.870;3.524;2023-12-04T03:10:17;3.41;68.89
82001;SHT30;71522;50.870;3.524;2023-12-04T03:12:42;3.41;69.62
82001;SHT30;71522;50.870;3.524;2023-12-04T03:15:08;3.41;69.19
82001;SHT30;71522;50.870;3.524;2023-12-04T03:17:36;3.46;69.29
82001;SHT30;71522;50.870;3.524;2023-12-04T03:20:02;3.51;69.55
82001;SHT30;71522;50.870;3.524;2023-12-04T03:22:28;3.54;69.02
82001;SHT30;71522;50.870;3.524;2023-12-04T03:24:54;3.61;68.99
82001;SHT30;71522;50.870;3.524;2023-12-04T03:27:20;3.63;68.76
82001;SHT30;71522;50.870;3.524;2023-12-04T03:29:45;3.70;69.08
82001;SHT30;71522;50.870;3.524;2023-12-04T03:32:11;3.68;68.98
82001;SHT30;71522;50.870;3.524;2023-12-04T03:34:36;3.68;68.62
82001;SHT30;71522;50.870;3.524;2023-12-04T03:37:02;3.68;69.50
82001;SHT30;71522;50.870;3.524;2023-12-04T03:39:28;3.73;67.71
82001;SHT30;71522;50.870;3.524;2023-12-04T03:41:54;3.75;68.77
82001;SHT30;71522;50.870;3.524;2023-12-04T03:44:19;3.85;67.47
82001;SHT30;71522;50.870;3.524;2023-12-04T03:46:47;3.88;68.06
82001;SHT30;71522;50.870;3.524;2023-12-04T03:49:12;3.81;68.19
82001;SHT30;71522;50.870;3.524;2023-12-04T03:51:38;3.85;67.27
82001;SHT30;71522;50.870;3.524;2023-12-04T03:54:04;3.85;68.27
82001;SHT30;71522;50.870;3.524;2023-12-04T03:56:30;3.89;67.70
82001;SHT30;71522;50.870;3.524;2023-12-04T03:58:55;3.91;67.23
82001;SHT30;71522;50.870;3.524;2023-12-04T04:01:21;3.97;66.76
82001;SHT30;71522;50.870;3.524;2023-12-04T04:03:47;4.05;65.92
82001;SHT30;71522;50.870;3.524;2023-12-04T04:06:13;4.06;66.22
82001;SHT30;71522;50.870;3.524;2023-12-04T04:08:38;4.02;66.66
82001;SHT30;71522;50.870;3.524;2023-12-04T04:11:04;3.98;66.63
82001;SHT30;71522;50.870;3.524;2023-12-04T04:13:30;4.01;66.73
82001;SHT30;71522;50.870;3.524;2023-12-04T04:15:56;3.98;66.69
82001;SHT30;71522;50.870;3.524;2023-12-04T04:18:21;3.94;66.63
82001;SHT30;71522;50.870;3.524;2023-12-04T04:20:47;3.91;67.28
82001;SHT30;71522;50.870;3.524;2023-12-04T04:23:12;3.88;67.11
82001;SHT30;71522;50.870;3.524;2023-12-04T04:25:38;3.89;66.89
82001;SHT30;71522;50.870;3.524;2023-12-04T04:28:04;3.94;67.21
82001;SHT30;71522;50.870;3.524;2023-12-04T04:30:29;3.85;65.29
82001;SHT30;71522;50.870;3.524;2023-12-04T04:32:55;3.91;66.74
82001;SHT30;71522;50.870;3.524;2023-12-04T04:35:20;3.88;66.07
82001;SHT30;71522;50.870;3.524;2023-12-04T04:37:46;3.87;66.85
82001;SHT30;71522;50.870;3.524;2023-12-04T04:40:12;3.85;65.77
82001;SHT30;71522;50.870;3.524;2023-12-04T04:42:38;3.88;65.63
82001;SHT30;71522;50.870;3.524;2023-12-04T04:45:04;3.87;66.52
82001;SHT30;71522;50.870;3.524;2023-12-04T04:47:30;3.87;66.52
82001;SHT30;71522;50.870;3.524;2023-12-04T04:49:56;3.81;66.23
82001;SHT30;71522;50.870;3.524;2023-12-04T04:52:21;3.77;66.86
82001;SHT30;71522;50.870;3.524;2023-12-04T04:54:47;3.73;67.44
82001;SHT30;71522;50.870;3.524;2023-12-04T04:57:13;3.74;67.48
82001;SHT30;71522;50.870;3.524;2023-12-04T04:59:38;3.75;67.53
82001;SHT30;71522;50.870;3.524;2023-12-04T05:02:04;3.81;66.46
82001;SHT30;71522;50.870;3.524;2023-12-04T05:04:30;3.79;66.65
82001;SHT30;71522;50.870;3.524;2023-12-04T05:06:55;3.81;67.61
82001;SHT30;71522;50.870;3.524;2023-12-04T05:09:21;3.79;66.94
82001;SHT30;71522;50.870;3.524;2023-12-04T05:11:47;3.82;67.33
82001;SHT30;71522;50.870;3.524;2023-12-04T05:14:12;3.74;67.24
82001;SHT30;71522;50.870;3.524;2023-12-04T05:16:38;3.77;67.08
82001;SHT30;71522;50.870;3.524;2023-12-04T05:19:03;3.77;67.18
82001;SHT30;71522;50.870;3.524;2023-12-04T05:21:29;3.68;68.05
82001;SHT30;71522;50.870;3.524;2023-12-04T05:23:54;3.67;68.17
82001;SHT30;71522;50.870;3.524;2023-12-04T05:26:20;3.70;68.51
82001;SHT30;71522;50.870;3.524;2023-12-04T05:28:46;3.74;68.00
82001;SHT30;71522;50.870;3.524;2023-12-04T05:31:12;3.82;67.45
82001;SHT30;71522;50.870;3.524;2023-12-04T05:33:37;3.82;66.67
82001;SHT30;71522;50.870;3.524;2023-12-04T05:36:04;3.79;66.91
82001;SHT30;71522;50.870;3.524;2023-12-04T05:38:30;3.78;66.95
82001;SHT30;71522;50.870;3.524;2023-12-04T05:40:55;3.78;66.20
82001;SHT30;71522;50.870;3.524;2023-12-04T05:43:21;3.78;66.89
82001;SHT30;71522;50.870;3.524;2023-12-04T05:45:47;3.78;67.59
82001;SHT30;71522;50.870;3.524;2023-12-04T05:48:12;3.77;67.17
82001;SHT30;71522;50.870;3.524;2023-12-04T05:50:38;3.78;67.29
82001;SHT30;71522;50.870;3.524;2023-12-04T05:53:05;3.71;67.39
82001;SHT30;71522;50.870;3.524;2023-12-04T05:55:31;3.66;67.99
82001;SHT30;71522;50.870;3.524;2023-12-04T05:57:59;3.64;67.74
82001;SHT30;71522;50.870;3.524;2023-12-04T06:00:26;3.68;68.28
82001;SHT30;71522;50.870;3.524;2023-12-04T06:02:58;3.63;67.81
82001;SHT30;71522;50.870;3.524;2023-12-04T06:05:25;3.63;67.24
82001;SHT30;71522;50.870;3.524;2023-12-04T06:07:53;3.67;67.70
82001;SHT30;71522;50.870;3.524;2023-12-04T06:10:20;3.70;67.20
82001;SHT30;71522;50.870;3.524;2023-12-04T06:12:45;3.67;66.85
82001;SHT30;71522;50.870;3.524;2023-12-04T06:15:11;3.64;67.62
82001;SHT30;71522;50.870;3.524;2023-12-04T06:17:37;3.63;67.32
82001;SHT30;71522;50.870;3.524;2023-12-04T06:20:03;3.67;67.58
82001;SHT30;71522;50.870;3.524;2023-12-04T06:22:29;3.64;66.95
82001;SHT30;71522;50.870;3.524;2023-12-04T06:24:55;3.64;67.70
82001;SHT30;71522;50.870;3.524;2023-12-04T06:27:21;3.67;67.56
82001;SHT30;71522;50.870;3.524;2023-12-04T06:29:48;3.64;67.34
82001;SHT30;71522;50.870;3.524;2023-12-04T06:32:15;3.64;67.60
82001;SHT30;71522;50.870;3.524;2023-12-04T06:34:41;3.63;67.65
82001;SHT30;71522;50.870;3.524;2023-12-04T06:37:12;3.58;68.27
82001;SHT30;71522;50.870;3.524;2023-12-04T06:39:39;3.56;67.85
82001;SHT30;71522;50.870;3.524;2023-12-04T06:42:06;3.57;67.44
82001;SHT30;71522;50.870;3.524;2023-12-04T06:44:36;3.64;67.77
82001;SHT30;71522;50.870;3.524;2023-12-04T06:47:09;3.63;67.97
82001;SHT30;71522;50.870;3.524;2023-12-04T06:49:40;3.56;68.20
82001;SHT30;71522;50.870;3.524;2023-12-04T06:52:10;3.56;68.47
82001;SHT30;71522;50.870;3.524;2023-12-04T06:54:40;3.48;69.23
82001;SHT30;71522;50.870;3.524;2023-12-04T06:57:11;3.46;69.14
82001;SHT30;71522;50.870;3.524;2023-12-04T06:59:47;3.48;68.80
82001;SHT30;71522;50.870;3.524;2023-12-04T07:02:17;3.40;69.87
82001;SHT30;71522;50.870;3.524;2023-12-04T07:04:47;3.44;70.24
82001;SHT30;71522;50.870;3.524;2023-12-04T07:07:17;3.48;69.73
82001;SHT30;71522;50.870;3.524;2023-12-04T07:09:44;3.41;69.97
82001;SHT30;71522;50.870;3.524;2023-12-04T07:12:10;3.37;71.64
82001;SHT30;71522;50.870;3.524;2023-12-04T07:14:36;3.31;71.68
82001;SHT30;71522;50.870;3.524;2023-12-04T07:17:04;3.37;72.22
82001;SHT30;71522;50.870;3.524;2023-12-04T07:19:30;3.27;72.47
82001;SHT30;71522;50.870;3.524;2023-12-04T07:21:56;3.27;72.90
82001;SHT30;71522;50.870;3.524;2023-12-04T07:24:21;3.31;73.16
82001;SHT30;71522;50.870;3.524;2023-12-04T07:26:47;3.24;73.55
82001;SHT30;71522;50.870;3.524;2023-12-04T07:29:13;3.20;74.26
82001;SHT30;71522;50.870;3.524;2023-12-04T07:31:41;3.15;74.75
82001;SHT30;71522;50.870;3.524;2023-12-04T07:34:07;3.18;75.00
82001;SHT30;71522;50.870;3.524;2023-12-04T07:36:32;3.18;75.37
82001;SHT30;71522;50.870;3.524;2023-12-04T07:38:58;3.09;76.14
82001;SHT30;71522;50.870;3.524;2023-12-04T07:41:24;3.12;76.09
82001;SHT30;71522;50.870;3.524;2023-12-04T07:43:53;3.10;76.25
82001;SHT30;71522;50.870;3.524;2023-12-04T07:46:24;3.12;76.28
82001;SHT30;71522;50.870;3.524;2023-12-04T07:48:54;3.05;76.69
82001;SHT30;71522;50.870;3.524;2023-12-04T07:51:20;3.13;76.26
82001;SHT30;71522;50.870;3.524;2023-12-04T07:53:45;3.13;76.66
82001;SHT30;71522;50.870;3.524;2023-12-04T07:56:13;3.10;76.95
82001;SHT30;71522;50.870;3.524;2023-12-04T07:58:39;3.08;76.92
82001;SHT30;71522;50.870;3.524;2023-12-04T08:01:05;3.03;77.22
82001;SHT30;71522;50.870;3.524;2023-12-04T08:03:31;3.02;77.16
82001;SHT30;71522;50.870;3.524;2023-12-04T08:05:57;3.06;77.11
82001;SHT30;71522;50.870;3.524;2023-12-04T08:08:26;3.03;77.22
82001;SHT30;71522;50.870;3.524;2023-12-04T08:10:52;3.05;77.25
82001;SHT30;71522;50.870;3.524;2023-12-04T08:13:18;3.09;77.31
82001;SHT30;71522;50.870;3.524;2023-12-04T08:15:44;3.03;77.81
82001;SHT30;71522;50.870;3.524;2023-12-04T08:18:10;3.10;77.41
82001;SHT30;71522;50.870;3.524;2023-12-04T08:20:35;3.15;77.73
82001;SHT30;71522;50.870;3.524;2023-12-04T08:23:01;3.12;77.66
82001;SHT30;71522;50.870;3.524;2023-12-04T08:25:27;3.22;77.46
82001;SHT30;71522;50.870;3.524;2023-12-04T08:27:52;3.12;77.63
82001;SHT30;71522;50.870;3.524;2023-12-04T08:30:18;3.08;77.54
82001;SHT30;71522;50.870;3.524;2023-12-04T08:32:44;3.13;77.32
82001;SHT30;71522;50.870;3.524;2023-12-04T08:35:09;3.18;77.56
82001;SHT30;71522;50.870;3.524;2023-12-04T08:37:35;3.12;77.26
82001;SHT30;71522;50.870;3.524;2023-12-04T08:40:01;3.06;78.14
82001;SHT30;71522;50.870;3.524;2023-12-04T08:42:29;3.03;78.53
82001;SHT30;71522;50.870;3.524;2023-12-04T08:44:54;2.96;78.85
82001;SHT30;71522;50.870;3.524;2023-12-04T08:47:20;2.95;78.61
82001;SHT30;71522;50.870;3.524;2023-12-04T08:49:46;2.95;78.74
82001;SHT30;71522;50.870;3.524;2023-12-04T08:52:12;2.96;79.05
82001;SHT30;71522;50.870;3.524;2023-12-04T08:54:41;3.00;79.06
82001;SHT30;71522;50.870;3.524;2023-12-04T08:57:08;3.02;78.70
82001;SHT30;71522;50.870;3.524;2023-12-04T08:59:34;2.99;79.00
82001;SHT30;71522;50.870;3.524;2023-12-04T09:02:00;3.06;79.29
82001;SHT30;71522;50.870;3.524;2023-12-04T09:04:30;3.09;78.94
82001;SHT30;71522;50.870;3.524;2023-12-04T09:06:56;3.08;79.13
82001;SHT30;71522;50.870;3.524;2023-12-04T09:09:22;3.19;79.03
82001;SHT30;71522;50.870;3.524;2023-12-04T09:11:48;3.20;78.91
82001;SHT30;71522;50.870;3.524;2023-12-04T09:14:13;3.16;78.69
82001;SHT30;71522;50.870;3.524;2023-12-04T09:16:40;3.20;78.90
82001;SHT30;71522;50.870;3.524;2023-12-04T09:19:05;3.19;78.96
82001;SHT30;71522;50.870;3.524;2023-12-04T09:21:31;3.13;79.05
82001;SHT30;71522;50.870;3.524;2023-12-04T09:23:57;3.12;79.23
82001;SHT30;71522;50.870;3.524;2023-12-04T09:26:22;3.08;79.34
82001;SHT30;71522;50.870;3.524;2023-12-04T09:28:48;3.08;79.93
82001;SHT30;71522;50.870;3.524;2023-12-04T09:31:14;3.06;79.88
82001;SHT30;71522;50.870;3.524;2023-12-04T09:33:40;3.06;80.24
82001;SHT30;71522;50.870;3.524;2023-12-04T09:36:06;3.08;80.48
82001;SHT30;71522;50.870;3.524;2023-12-04T09:38:32;3.05;80.66
82001;SHT30;71522;50.870;3.524;2023-12-04T09:40:59;3.12;80.56
82001;SHT30;71522;50.870;3.524;2023-12-04T09:43:31;3.10;80.67
82001;SHT30;71522;50.870;3.524;2023-12-04T09:45:58;3.19;80.91
82001;SHT30;71522;50.870;3.524;2023-12-04T09:48:26;3.24;80.37
82001;SHT30;71522;50.870;3.524;2023-12-04T09:50:56;3.29;80.28
82001;SHT30;71522;50.870;3.524;2023-12-04T09:53:23;3.26;80.85
82001;SHT30;71522;50.870;3.524;2023-12-04T09:55:50;3.27;80.89
82001;SHT30;71522;50.870;3.524;2023-12-04T09:58:19;3.36;80.44
82001;SHT30;71522;50.870;3.524;2023-12-04T10:00:46;3.43;80.83
82001;SHT30;71522;50.870;3.524;2023-12-04T10:03:13;3.47;80.43
82001;SHT30;71522;50.870;3.524;2023-12-04T10:05:48;3.50;80.52
82001;SHT30;71522;50.870;3.524;2023-12-04T10:08:14;3.51;80.71
82001;SHT30;71522;50.870;3.524;2023-12-04T10:10:40;3.54;80.84
82001;SHT30;71522;50.870;3.524;2023-12-04T10:13:05;3.50;81.34
82001;SHT30;71522;50.870;3.524;2023-12-04T10:15:32;3.58;81.04
82001;SHT30;71522;50.870;3.524;2023-12-04T10:17:58;3.57;80.95
82001;SHT30;71522;50.870;3.524;2023-12-04T10:20:23;3.58;81.01
82001;SHT30;71522;50.870;3.524;2023-12-04T10:23:01;3.43;81.43
82001;SHT30;71522;50.870;3.524;2023-12-04T10:25:29;3.43;81.69
82001;SHT30;71522;50.870;3.524;2023-12-04T10:28:09;3.48;81.58
82001;SHT30;71522;50.870;3.524;2023-12-04T10:30:40;3.54;81.46
82001;SHT30;71522;50.870;3.524;2023-12-04T10:33:07;3.63;81.26
82001;SHT30;71522;50.870;3.524;2023-12-04T10:35:35;3.67;81.18
82001;SHT30;71522;50.870;3.524;2023-12-04T10:38:06;3.68;81.04
82001;SHT30;71522;50.870;3.524;2023-12-04T10:40:33;3.57;81.35
82001;SHT30;71522;50.870;3.524;2023-12-04T10:43:14;3.57;81.54
82001;SHT30;71522;50.870;3.524;2023-12-04T10:45:41;3.60;81.55
82001;SHT30;71522;50.870;3.524;2023-12-04T10:48:08;3.68;81.47
82001;SHT30;71522;50.870;3.524;2023-12-04T10:50:35;3.67;81.56
82001;SHT30;71522;50.870;3.524;2023-12-04T10:53:04;3.68;81.65
82001;SHT30;71522;50.870;3.524;2023-12-04T10:55:31;3.70;81.84
82001;SHT30;71522;50.870;3.524;2023-12-04T10:57:57;3.79;81.79
82001;SHT30;71522;50.870;3.524;2023-12-04T11:00:26;3.79;81.67
82001;SHT30;71522;50.870;3.524;2023-12-04T11:02:56;3.84;81.76
82001;SHT30;71522;50.870;3.524;2023-12-04T11:05:24;3.87;81.61
82001;SHT30;71522;50.870;3.524;2023-12-04T11:08:01;3.88;81.96
82001;SHT30;71522;50.870;3.524;2023-12-04T11:10:30;3.78;82.30
82001;SHT30;71522;50.870;3.524;2023-12-04T11:13:08;3.82;82.46
82001;SHT30;71522;50.870;3.524;2023-12-04T11:15:39;3.89;82.49
82001;SHT30;71522;50.870;3.524;2023-12-04T11:18:07;3.94;82.31
82001;SHT30;71522;50.870;3.524;2023-12-04T11:20:44;3.94;82.32
82001;SHT30;71522;50.870;3.524;2023-12-04T11:23:13;3.88;82.78
82001;SHT30;71522;50.870;3.524;2023-12-04T11:25:42;3.94;83.03
82001;SHT30;71522;50.870;3.524;2023-12-04T11:28:09;3.92;83.03
82001;SHT30;71522;50.870;3.524;2023-12-04T11:30:36;3.97;83.04
82001;SHT30;71522;50.870;3.524;2023-12-04T11:33:05;4.02;83.07
82001;SHT30;71522;50.870;3.524;2023-12-04T11:35:30;4.01;83.22
82001;SHT30;71522;50.870;3.524;2023-12-04T11:38:05;4.09;83.07
82001;SHT30;71522;50.870;3.524;2023-12-04T11:40:32;4.09;83.19
82001;SHT30;71522;50.870;3.524;2023-12-04T11:42:58;4.16;82.98
82001;SHT30;71522;50.870;3.524;2023-12-04T11:45:24;4.23;83.01
82001;SHT30;71522;50.870;3.524;2023-12-04T11:47:57;4.26;82.97
82001;SHT30;71522;50.870;3.524;2023-12-04T11:50:28;4.30;83.04
82001;SHT30;71522;50.870;3.524;2023-12-04T11:52:54;4.36;82.75
82001;SHT30;71522;50.870;3.524;2023-12-04T11:55:23;4.49;82.59
82001;SHT30;71522;50.870;3.524;2023-12-04T11:57:54;4.52;82.58
82001;SHT30;71522;50.870;3.524;2023-12-04T12:00:24;4.49;82.83
82001;SHT30;71522;50.870;3.524;2023-12-04T12:05:23;4.61;82.32
82001;SHT30;71522;50.870;3.524;2023-12-04T12:07:51;4.67;82.34
82001;SHT30;71522;50.870;3.524;2023-12-04T12:10:17;4.61;82.19
82001;SHT30;71522;50.870;3.524;2023-12-04T12:12:43;4.60;82.25
82001;SHT30;71522;50.870;3.524;2023-12-04T12:15:10;4.67;82.18
82001;SHT30;71522;50.870;3.524;2023-12-04T12:17:37;4.76;81.91
82001;SHT30;71522;50.870;3.524;2023-12-04T12:20:09;4.76;81.72
82001;SHT30;71522;50.870;3.524;2023-12-04T12:22:37;4.67;82.22
82001;SHT30;71522;50.870;3.524;2023-12-04T12:25:07;4.71;81.98
82001;SHT30;71522;50.870;3.524;2023-12-04T12:27:33;4.70;82.13
82001;SHT30;71522;50.870;3.524;2023-12-04T12:30:00;4.76;82.07
82001;SHT30;71522;50.870;3.524;2023-12-04T12:32:27;4.73;81.86
82001;SHT30;71522;50.870;3.524;2023-12-04T12:34:53;4.74;82.01
82001;SHT30;71522;50.870;3.524;2023-12-04T12:37:21;4.71;82.02
82001;SHT30;71522;50.870;3.524;2023-12-04T12:39:47;4.70;82.37
82001;SHT30;71522;50.870;3.524;2023-12-04T12:42:26;4.71;82.40
82001;SHT30;71522;50.870;3.524;2023-12-04T12:44:56;4.77;82.46
82001;SHT30;71522;50.870;3.524;2023-12-04T12:47:25;4.78;82.53
82001;SHT30;71522;50.870;3.524;2023-12-04T12:49:52;4.80;82.84
82001;SHT30;71522;50.870;3.524;2023-12-04T12:52:17;4.94;82.78
82001;SHT30;71522;50.870;3.524;2023-12-04T12:54:43;4.91;82.75
82001;SHT30;71522;50.870;3.524;2023-12-04T12:57:11;4.92;82.59
82001;SHT30;71522;50.870;3.524;2023-12-04T12:59:42;4.89;82.73
82001;SHT30;71522;50.870;3.524;2023-12-04T13:02:14;4.88;82.70
82001;SHT30;71522;50.870;3.524;2023-12-04T13:04:44;4.88;82.64
82001;SHT30;71522;50.870;3.524;2023-12-04T13:07:13;4.87;82.67
82001;SHT30;71522;50.870;3.524;2023-12-04T13:09:43;4.83;82.84
82001;SHT30;71522;50.870;3.524;2023-12-04T13:12:09;4.85;82.80
82001;SHT30;71522;50.870;3.524;2023-12-04T13:14:35;4.87;82.87
82001;SHT30;71522;50.870;3.524;2023-12-04T13:17:03;4.85;82.81
82001;SHT30;71522;50.870;3.524;2023-12-04T13:19:29;4.81;83.15
82001;SHT30;71522;50.870;3.524;2023-12-04T13:21:57;4.85;83.24
82001;SHT30;71522;50.870;3.524;2023-12-04T13:24:23;4.89;83.40
82001;SHT30;71522;50.870;3.524;2023-12-04T13:26:49;4.92;83.40
82001;SHT30;71522;50.870;3.524;2023-12-04T13:29:14;4.92;83.42
82001;SHT30;71522;50.870;3.524;2023-12-04T13:31:48;4.83;83.77
82001;SHT30;71522;50.870;3.524;2023-12-04T13:34:16;4.88;83.85
82001;SHT30;71522;50.870;3.524;2023-12-04T13:36:41;4.94;83.56
82001;SHT30;71522;50.870;3.524;2023-12-04T13:39:07;4.91;83.62
82001;SHT30;71522;50.870;3.524;2023-12-04T13:41:55;4.92;83.79
82001;SHT30;71522;50.870;3.524;2023-12-04T13:44:39;4.95;83.55
82001;SHT30;71522;50.870;3.524;2023-12-04T13:47:06;4.92;83.60
82001;SHT30;71522;50.870;3.524;2023-12-04T13:49:32;4.92;83.88
82001;SHT30;71522;50.870;3.524;2023-12-04T13:51:59;4.98;83.86
82001;SHT30;71522;50.870;3.524;2023-12-04T13:54:26;4.92;83.84
82001;SHT30;71522;50.870;3.524;2023-12-04T13:57:08;4.98;83.85
82001;SHT30;71522;50.870;3.524;2023-12-04T13:59:37;4.99;83.67
82001;SHT30;71522;50.870;3.524;2023-12-04T14:02:04;5.07;83.61
82001;SHT30;71522;50.870;3.524;2023-12-04T14:04:39;5.05;83.52
82001;SHT30;71522;50.870;3.524;2023-12-04T14:07:05;5.02;83.86
82001;SHT30;71522;50.870;3.524;2023-12-04T14:09:34;5.05;84.10
82001;SHT30;71522;50.870;3.524;2023-12-04T14:12:01;5.05;84.28
82001;SHT30;71522;50.870;3.524;2023-12-04T14:14:30;5.07;84.35
82001;SHT30;71522;50.870;3.524;2023-12-04T14:16:59;5.08;84.28
82001;SHT30;71522;50.870;3.524;2023-12-04T14:19:25;5.12;84.28
82001;SHT30;71522;50.870;3.524;2023-12-04T14:21:50;5.05;84.40
82001;SHT30;71522;50.870;3.524;2023-12-04T14:24:19;5.07;84.49
82001;SHT30;71522;50.870;3.524;2023-12-04T14:26:55;5.05;84.67
82001;SHT30;71522;50.870;3.524;2023-12-04T14:29:21;5.07;84.61
82001;SHT30;71522;50.870;3.524;2023-12-04T14:31:47;5.01;84.83
82001;SHT30;71522;50.870;3.524;2023-12-04T14:34:24;5.02;84.74
82001;SHT30;71522;50.870;3.524;2023-12-04T14:36:50;5.11;84.82
82001;SHT30;71522;50.870;3.524;2023-12-04T14:39:16;5.19;84.49
82001;SHT30;71522;50.870;3.524;2023-12-04T14:41:44;5.21;84.38
82001;SHT30;71522;50.870;3.524;2023-12-04T14:44:09;5.24;84.16
82001;SHT30;71522;50.870;3.524;2023-12-04T14:46:37;5.24;84.16
82001;SHT30;71522;50.870;3.524;2023-12-04T14:49:04;5.24;84.08
82001;SHT30;71522;50.870;3.524;2023-12-04T14:51:44;5.18;84.23
82001;SHT30;71522;50.870;3.524;2023-12-04T14:54:14;5.11;84.51
82001;SHT30;71522;50.870;3.524;2023-12-04T14:56:50;5.19;84.54
82001;SHT30;71522;50.870;3.524;2023-12-04T14:59:16;5.19;84.53
82001;SHT30;71522;50.870;3.524;2023-12-04T15:02:03;5.19;84.54
82001;SHT30;71522;50.870;3.524;2023-12-04T15:04:47;5.22;84.64
82001;SHT30;71522;50.870;3.524;2023-12-04T15:07:39;5.19;84.70
82001;SHT30;71522;50.870;3.524;2023-12-04T15:10:06;5.12;85.11
82001;SHT30;71522;50.870;3.524;2023-12-04T15:12:52;5.12;85.23
82001;SHT30;71522;50.870;3.524;2023-12-04T15:15:44;5.07;85.25
82001;SHT30;71522;50.870;3.524;2023-12-04T15:18:49;4.91;86.24
82001;SHT30;71522;50.870;3.524;2023-12-04T15:21:37;4.81;86.75
82001;SHT30;71522;50.870;3.524;2023-12-04T15:24:11;4.77;87.02
82001;SHT30;71522;50.870;3.524;2023-12-04T15:26:37;4.74;87.04
82001;SHT30;71522;50.870;3.524;2023-12-04T15:29:06;4.84;87.12
82001;SHT30;71522;50.870;3.524;2023-12-04T15:31:32;4.88;87.09
82001;SHT30;71522;50.870;3.524;2023-12-04T15:34:10;4.88;86.96
82001;SHT30;71522;50.870;3.524;2023-12-04T15:36:37;4.88;87.01
82001;SHT30;71522;50.870;3.524;2023-12-04T15:39:10;4.88;87.19
82001;SHT30;71522;50.870;3.524;2023-12-04T15:41:35;4.88;87.23
82001;SHT30;71522;50.870;3.524;2023-12-04T15:44:03;4.88;87.23
82001;SHT30;71522;50.870;3.524;2023-12-04T15:46:34;4.87;87.27
82001;SHT30;71522;50.870;3.524;2023-12-04T15:49:00;4.89;87.41
82001;SHT30;71522;50.870;3.524;2023-12-04T15:51:27;4.94;87.43